Lahaina, HI (96761)

8:57 PM HST on April 25, 2015 (GMT -1000)
puamana | | Change Station
CLOSE
Current Station
Personal Weather Station
Location: Lahaina, HI
Elevation: 36 ft
Nearby Weather Stations

Elev 36 ft 20.86 °N, 156.67 °W | Updated 14 minutes ago

Partly Cloudy
Partly Cloudy
76.6 °F
Feels Like 78 °F
N
0.0
Wind Variable Wind from SSE
Gusts 0.0 mph

Today
High -- | Low -- °F
--% Chance of Precip.
Yesterday
High -- | Low -- °F
Precip. -- in
6:00 AM 6:49 PM
First Quarter, 53% visible
Pressure 30.01 in
Visibility 10.0 miles
Clouds Few 7000 ft
Heat Index 78 °F
Dew Point 70 °F
Humidity 81%
Rainfall 0.00 in
Snow Depth Not available.
UV 0 out of 12
Pollen Not available.
Air Quality Not available.
Flu Activity Regional
METAR PHOG 260654Z 18003KT 10SM FEW070 24/20 A2999 RMK AO2 SLP160 T02440200 $

More Conditions Fewer Conditions

Pressure 30.01 in
Visibility 10.0 miles
Clouds Few 7000 ft
Heat Index 78 °F
Dew Point 70 °F
Humidity 81%
Rainfall 0.00 in
Snow Depth Not available.
UV 0 out of 12
Pollen Not available.
Air Quality Not available.
Flu Activity Regional
METAR PHOG 260654Z 18003KT 10SM FEW070 24/20 A2999 RMK AO2 SLP160 T02440200 $

More Conditions Fewer Conditions

10-Day Weather Forecast

Almanac

Astronomy

Apr. 25, 2015 Rise Set
Actual Time
Civil Twilight
Nautical Twilight
Astronomical Twilight
Moon
Length of Visible Light
Length of Day
Tomorrow will be .
, % of the Moon is Illuminated

Today's Extremes

State Highs State Lows

Community

WunderPhotos

Upload Photos

1,816,947 photos uploaded!

WunderBlogs® & News

Nearby

Air Quality

  Air Quality AQ Index Pollutant
Not available.

Snow Depth

Station Depth Elevation

Earthquake Activity

City Distance Mag. Time & Date
Minimum magnitude displayed is 2.5.

Coastal Water Temperatures

Place Temperature

Stations

Nearby Weather Stations

Station Location Temp. Windchill Dew Point Humidity Wind Precip. Elev Updated Type